Time;durP1;ratioP1;P1;durP2;ratioP2;P2;SDS_P1;SDS_P2;PMS_P1;PMS_P2;Temp;Humidity;BMP_temperature;BMP_pressure;BME280_temperature;BME280_humidity;BME280_pressure;Samples;Min_cycle;Max_cycle;Signal;HPM_P1;HPM_P2
2022/01/13 00:00:11;;;;;;;18.90;9.60;;;4.30;99.90;;;;;;5018058;28;20218;-63
2022/01/13 00:02:37;;;;;;;18.33;10.00;;;4.40;99.90;;;;;;5017836;28;20189;-68
2022/01/13 00:05:04;;;;;;;20.47;10.83;;;4.40;99.90;;;;;;5020057;28;20191;-62
2022/01/13 00:07:30;;;;;;;17.43;9.83;;;4.40;99.90;;;;;;5021778;28;20219;-62
2022/01/13 00:09:55;;;;;;;20.17;10.47;;;4.40;99.90;;;;;;5020441;28;20184;-65
2022/01/13 00:12:24;;;;;;;18.07;9.03;;;4.40;99.90;;;;;;5019637;28;20264;-66
2022/01/13 00:15:08;;;;;;;18.93;8.97;;;4.40;99.90;;;;;;5018680;28;20656;-64
2022/01/13 00:20:31;;;;;;;17.70;9.93;;;4.40;99.90;;;;;;5025723;28;20219;-62
2022/01/13 00:25:41;;;;;;;21.60;12.40;;;4.50;99.90;;;;;;5018861;28;20185;-63
2022/01/13 00:28:16;;;;;;;20.37;10.53;;;4.40;99.90;;;;;;5020301;28;20232;-65
2022/01/13 00:30:42;;;;;;;18.20;9.70;;;4.40;99.90;;;;;;5018063;28;20186;-63
2022/01/13 00:33:10;;;;;;;20.67;10.33;;;4.30;99.90;;;;;;5021689;28;20181;-63
2022/01/13 00:35:36;;;;;;;20.53;9.63;;;4.40;99.90;;;;;;5018481;28;20548;-64
2022/01/13 00:38:02;;;;;;;18.77;10.17;;;4.40;99.90;;;;;;5020947;28;20246;-64
2022/01/13 00:40:28;;;;;;;18.73;10.40;;;4.40;99.90;;;;;;5018978;28;20194;-64
2022/01/13 00:42:53;;;;;;;19.53;11.07;;;4.40;99.90;;;;;;5018199;28;20275;-66
2022/01/13 00:45:19;;;;;;;22.50;10.37;;;4.40;99.90;;;;;;5019581;28;20631;-63
2022/01/13 00:47:45;;;;;;;23.40;10.87;;;4.40;99.90;;;;;;5019396;28;20223;-64
2022/01/13 00:50:11;;;;;;;22.27;13.10;;;4.40;99.90;;;;;;5018875;28;20185;-62
2022/01/13 00:52:36;;;;;;;18.63;9.27;;;4.40;99.90;;;;;;5018846;28;20189;-64
2022/01/13 00:55:07;;;;;;;17.27;9.80;;;4.40;99.90;;;;;;5017639;28;20273;-64
2022/01/13 00:57:33;;;;;;;25.53;9.10;;;4.40;99.90;;;;;;5018781;28;20530;-62
2022/01/13 00:59:59;;;;;;;20.03;9.33;;;4.50;99.90;;;;;;5017900;28;20319;-63
2022/01/13 01:02:26;;;;;;;17.80;9.03;;;4.50;99.90;;;;;;5021113;28;20199;-62
2022/01/13 01:04:52;;;;;;;20.33;8.20;;;4.50;99.90;;;;;;5023667;28;20231;-64
2022/01/13 01:07:18;;;;;;;13.87;8.37;;;4.50;99.90;;;;;;5026723;28;20348;-62
2022/01/13 01:09:50;;;;;;;13.47;7.63;;;4.50;99.90;;;;;;5024520;28;20290;-63
2022/01/13 01:12:18;;;;;;;11.17;7.27;;;4.40;99.90;;;;;;5025123;28;20169;-64
2022/01/13 01:14:49;;;;;;;15.33;7.67;;;4.40;99.90;;;;;;5024666;28;20186;-63
2022/01/13 01:17:16;;;;;;;8.37;5.53;;;4.40;99.90;;;;;;5022995;28;20621;-63
2022/01/13 01:19:45;;;;;;;10.63;6.07;;;4.40;99.90;;;;;;5026624;28;20228;-66
2022/01/13 01:27:41;;;;;;;7.63;4.80;;;4.30;99.90;;;;;;5032307;28;20225;-64
2022/01/13 01:30:36;;;;;;;8.40;5.50;;;4.30;99.90;;;;;;5025756;28;20302;-63
2022/01/13 01:32:54;;;;;;;9.17;5.90;;;4.20;99.90;;;;;;5030259;28;20238;-63
2022/01/13 01:35:24;;;;;;;10.87;5.97;;;4.20;99.90;;;;;;5024613;28;20269;-62
2022/01/13 01:37:50;;;;;;;10.80;5.23;;;4.30;99.90;;;;;;5026255;28;20542;-62
2022/01/13 01:40:15;;;;;;;10.90;5.90;;;4.20;99.90;;;;;;5024715;28;20204;-65
2022/01/13 01:42:41;;;;;;;10.50;7.40;;;4.20;99.90;;;;;;5026253;28;20179;-65
2022/01/13 01:45:09;;;;;;;9.67;5.60;;;4.30;99.90;;;;;;5024776;28;20253;-70
2022/01/13 01:47:35;;;;;;;9.83;5.50;;;4.20;99.90;;;;;;5024408;28;20542;-63
2022/01/13 01:50:12;;;;;;;7.97;4.83;;;4.10;99.90;;;;;;5025982;28;20191;-63
2022/01/13 01:52:39;;;;;;;9.30;5.50;;;4.10;99.90;;;;;;5023780;28;20183;-62
2022/01/13 01:55:07;;;;;;;7.00;5.27;;;4.00;99.90;;;;;;5025283;28;20495;-63
2022/01/13 01:57:33;;;;;;;11.40;7.50;;;3.90;99.90;;;;;;5029278;28;20199;-63
2022/01/13 01:59:58;;;;;;;9.80;6.93;;;3.90;99.90;;;;;;5024508;28;20647;-62
2022/01/13 02:02:26;;;;;;;8.57;5.00;;;4.00;99.90;;;;;;5026658;28;24407;-69
2022/01/13 02:04:52;;;;;;;13.83;6.53;;;3.90;99.90;;;;;;5025482;28;20234;-65
2022/01/13 02:07:17;;;;;;;8.27;5.27;;;3.80;99.90;;;;;;5025674;28;20209;-62
2022/01/13 02:09:49;;;;;;;15.97;5.60;;;3.90;99.90;;;;;;5023780;28;20177;-68
2022/01/13 02:12:26;;;;;;;12.33;7.50;;;3.80;99.90;;;;;;5027055;28;20198;-63
2022/01/13 02:17:42;;;;;;;11.63;5.37;;;3.70;99.90;;;;;;5024094;28;20568;-63
2022/01/13 02:20:10;;;;;;;8.47;6.43;;;3.60;99.90;;;;;;5028893;28;20187;-63
2022/01/13 02:22:36;;;;;;;9.97;5.17;;;3.70;99.90;;;;;;5023112;28;20179;-63
2022/01/13 02:25:04;;;;;;;9.47;6.80;;;3.60;99.90;;;;;;5032715;28;20197;-66
2022/01/13 02:27:29;;;;;;;11.33;5.20;;;3.60;99.90;;;;;;5030493;28;20217;-67
2022/01/13 02:29:55;;;;;;;11.57;5.50;;;3.60;99.90;;;;;;5028783;28;20284;-66
2022/01/13 02:32:21;;;;;;;10.20;5.97;;;3.50;99.90;;;;;;5031002;28;20193;-63
2022/01/13 02:34:48;;;;;;;9.97;6.30;;;3.50;99.90;;;;;;5025060;28;20199;-62
2022/01/13 02:37:14;;;;;;;9.77;6.03;;;3.50;99.90;;;;;;5026576;28;20186;-64
2022/01/13 02:39:41;;;;;;;8.10;5.93;;;3.50;99.90;;;;;;5024853;28;20182;-63
2022/01/13 02:42:14;;;;;;;10.47;6.27;;;3.50;99.90;;;;;;5024675;28;20182;-63
2022/01/13 02:44:52;;;;;;;9.23;4.17;;;3.50;99.90;;;;;;5025185;28;20189;-63
2022/01/13 02:47:34;;;;;;;10.27;5.30;;;3.50;99.90;;;;;;5023002;28;20243;-64
2022/01/13 02:50:02;;;;;;;8.40;5.27;;;3.40;99.90;;;;;;5027543;28;20834;-65
2022/01/13 02:52:27;;;;;;;10.73;6.17;;;3.40;99.90;;;;;;5024223;28;20198;-65
2022/01/13 02:54:53;;;;;;;6.90;4.97;;;3.40;99.90;;;;;;5024784;28;20185;-65
2022/01/13 02:57:19;;;;;;;10.03;5.80;;;3.50;99.90;;;;;;5021792;28;20221;-64
2022/01/13 02:59:44;;;;;;;7.13;5.70;;;3.50;99.90;;;;;;5026126;28;20201;-64
2022/01/13 03:02:10;;;;;;;10.40;6.80;;;3.40;99.90;;;;;;5029006;28;20202;-64
2022/01/13 03:04:35;;;;;;;9.40;5.97;;;3.50;99.90;;;;;;5026671;28;20628;-65
2022/01/13 03:07:01;;;;;;;9.60;6.83;;;3.40;99.90;;;;;;5025423;28;20408;-64
2022/01/13 03:09:27;;;;;;;10.33;5.53;;;3.40;99.90;;;;;;5023800;28;20191;-65
2022/01/13 03:11:53;;;;;;;9.13;6.27;;;3.40;99.90;;;;;;5025414;28;20182;-67
2022/01/13 03:14:18;;;;;;;10.57;6.60;;;3.40;99.90;;;;;;5023834;28;20598;-64
2022/01/13 03:16:45;;;;;;;14.40;7.20;;;3.50;99.90;;;;;;5028996;28;20520;-66
2022/01/13 03:19:11;;;;;;;12.63;5.53;;;3.50;99.90;;;;;;5020932;28;20192;-62
2022/01/13 03:21:38;;;;;;;7.67;4.90;;;3.50;99.90;;;;;;5020081;28;20192;-64
2022/01/13 03:24:09;;;;;;;9.47;6.30;;;3.50;99.90;;;;;;5022668;28;20718;-64
2022/01/13 03:26:35;;;;;;;12.50;6.67;;;3.60;99.90;;;;;;5020878;28;20213;-63
2022/01/13 03:29:15;;;;;;;11.90;6.03;;;3.50;99.90;;;;;;5022048;28;20323;-62
2022/01/13 03:31:44;;;;;;;10.33;5.73;;;3.50;99.90;;;;;;5019664;28;20189;-65
2022/01/13 03:34:13;;;;;;;13.33;6.73;;;3.60;99.90;;;;;;5021770;28;20184;-62
2022/01/13 03:36:39;;;;;;;9.87;5.80;;;3.60;99.90;;;;;;5018803;28;20568;-62
2022/01/13 03:39:06;;;;;;;10.93;5.17;;;3.60;99.90;;;;;;5027034;28;20220;-64
2022/01/13 03:41:33;;;;;;;9.67;6.10;;;3.50;99.90;;;;;;5024172;28;20192;-62
2022/01/13 03:44:05;;;;;;;6.37;4.43;;;3.60;99.90;;;;;;5021863;28;20179;-68
2022/01/13 03:46:32;;;;;;;12.67;6.50;;;3.60;99.90;;;;;;5019907;28;20206;-68
2022/01/13 03:48:58;;;;;;;9.73;6.23;;;3.70;99.90;;;;;;5022790;28;20287;-63
2022/01/13 03:51:23;;;;;;;8.77;5.33;;;3.60;99.90;;;;;;5029853;28;20215;-64
2022/01/13 03:54:27;;;;;;;9.93;5.00;;;3.60;99.90;;;;;;5024489;28;20258;-62
2022/01/13 03:57:30;;;;;;;9.40;5.80;;;3.70;99.90;;;;;;5020514;28;20195;-66
2022/01/13 04:00:45;;;;;;;7.97;5.37;;;3.70;99.90;;;;;;5025329;28;20198;-67
2022/01/13 04:03:11;;;;;;;7.03;5.50;;;3.80;99.90;;;;;;4957572;28;20187;-63
2022/01/13 04:05:59;;;;;;;9.83;5.63;;;3.90;99.90;;;;;;4955938;28;20688;-65
2022/01/13 04:08:25;;;;;;;7.97;5.37;;;3.80;99.90;;;;;;4996542;28;20378;-65
2022/01/13 04:10:53;;;;;;;10.40;5.87;;;3.80;99.90;;;;;;5021153;28;20286;-62
2022/01/13 04:13:42;;;;;;;9.47;5.90;;;3.80;99.90;;;;;;5017615;28;20190;-62
2022/01/13 04:16:07;;;;;;;6.03;3.90;;;3.90;99.90;;;;;;5017846;28;20196;-68
2022/01/13 04:18:32;;;;;;;8.80;5.53;;;3.90;99.90;;;;;;5020957;28;20196;-63
2022/01/13 04:21:00;;;;;;;10.97;5.00;;;3.90;99.90;;;;;;5019310;28;20576;-65
2022/01/13 04:23:25;;;;;;;8.77;5.33;;;3.90;99.90;;;;;;5016597;28;20508;-63
2022/01/13 04:25:51;;;;;;;8.50;4.93;;;3.90;99.90;;;;;;5018436;28;20197;-65
2022/01/13 04:28:17;;;;;;;9.53;5.40;;;3.90;99.90;;;;;;5019214;28;20219;-64
2022/01/13 04:33:08;;;;;;;8.57;5.60;;;3.80;99.90;;;;;;5018516;28;20187;-63
2022/01/13 04:35:34;;;;;;;6.10;3.90;;;3.80;99.90;;;;;;5016831;28;20288;-62
2022/01/13 04:38:00;;;;;;;10.20;5.20;;;3.90;99.90;;;;;;5021737;28;20564;-68
2022/01/13 04:40:25;;;;;;;6.63;4.87;;;3.80;99.90;;;;;;5016405;28;20183;-62
2022/01/13 04:42:55;;;;;;;7.50;4.67;;;3.90;99.90;;;;;;5017368;28;20215;-67
2022/01/13 04:45:23;;;;;;;5.47;4.33;;;3.90;99.90;;;;;;5015233;28;20633;-69
2022/01/13 04:47:52;;;;;;;8.13;4.70;;;4.00;99.90;;;;;;5016604;28;20208;-63
2022/01/13 04:50:20;;;;;;;6.73;4.83;;;4.00;99.90;;;;;;5019508;28;20192;-63
2022/01/13 04:52:45;;;;;;;6.57;4.17;;;4.00;99.90;;;;;;5019376;28;20187;-63
2022/01/13 04:55:13;;;;;;;7.87;4.33;;;4.00;99.90;;;;;;5017923;28;20200;-66
2022/01/13 04:57:39;;;;;;;11.27;4.77;;;3.90;99.90;;;;;;5018806;28;20605;-67
2022/01/13 05:00:07;;;;;;;5.77;4.67;;;3.90;99.90;;;;;;5019372;28;20192;-62
2022/01/13 05:02:33;;;;;;;8.13;5.10;;;4.00;99.90;;;;;;5017978;28;20177;-62
2022/01/13 05:04:58;;;;;;;6.93;4.70;;;4.00;99.90;;;;;;5016669;28;20191;-62
2022/01/13 05:07:24;;;;;;;11.80;5.37;;;4.00;99.90;;;;;;5017208;28;20277;-63
2022/01/13 05:09:50;;;;;;;10.00;4.23;;;4.00;99.90;;;;;;5018381;28;20208;-66
2022/01/13 05:12:17;;;;;;;6.40;4.03;;;4.00;99.90;;;;;;5020086;28;20253;-64
2022/01/13 05:14:44;;;;;;;5.90;4.20;;;4.00;99.90;;;;;;5019887;28;20212;-62
2022/01/13 05:17:23;;;;;;;6.57;4.57;;;4.10;99.90;;;;;;5017925;28;20543;-66
2022/01/13 05:20:09;;;;;;;10.07;3.60;;;4.10;99.90;;;;;;5021641;28;20187;-63
2022/01/13 05:22:34;;;;;;;6.83;4.17;;;4.00;99.90;;;;;;5017217;28;20208;-65
2022/01/13 05:25:00;;;;;;;7.87;4.60;;;4.10;99.90;;;;;;5019752;28;20174;-63
2022/01/13 05:27:27;;;;;;;9.20;4.80;;;4.10;99.90;;;;;;5018645;28;20219;-63
2022/01/13 05:29:52;;;;;;;6.20;4.47;;;4.10;99.90;;;;;;5017112;28;20180;-64
2022/01/13 05:32:19;;;;;;;9.00;4.83;;;4.10;99.90;;;;;;5018562;28;20181;-63
2022/01/13 05:34:45;;;;;;;6.10;4.50;;;4.00;99.90;;;;;;5018016;28;20187;-64
2022/01/13 05:37:11;;;;;;;11.07;4.40;;;4.00;99.90;;;;;;5017949;28;20641;-63
2022/01/13 05:39:37;;;;;;;8.90;4.40;;;4.10;99.90;;;;;;5018197;28;20512;-66
2022/01/13 05:42:03;;;;;;;5.90;4.30;;;4.10;99.90;;;;;;5020971;28;20251;-63
2022/01/13 05:44:28;;;;;;;7.97;4.70;;;4.10;99.90;;;;;;5027169;28;20182;-63
2022/01/13 05:46:54;;;;;;;7.87;5.23;;;4.10;99.90;;;;;;5023985;28;24644;-69
2022/01/13 05:49:20;;;;;;;11.90;5.50;;;4.10;99.90;;;;;;5024241;28;20230;-63
2022/01/13 05:51:45;;;;;;;5.63;3.40;;;4.10;99.90;;;;;;5029907;28;20224;-64
2022/01/13 05:54:11;;;;;;;5.77;3.77;;;4.10;99.90;;;;;;5026833;28;20634;-65
2022/01/13 05:56:36;;;;;;;6.07;4.40;;;4.10;99.90;;;;;;5023264;28;20309;-63
2022/01/13 05:59:02;;;;;;;6.63;3.33;;;4.10;99.90;;;;;;5019740;28;20193;-63
2022/01/13 06:01:28;;;;;;;7.73;3.23;;;4.20;99.90;;;;;;5024500;28;20182;-64
2022/01/13 06:03:53;;;;;;;9.77;4.90;;;4.10;99.90;;;;;;5020339;28;20185;-68
2022/01/13 06:06:19;;;;;;;6.90;4.43;;;4.10;99.90;;;;;;5022333;28;20533;-64
2022/01/13 06:08:45;;;;;;;12.07;4.77;;;4.10;99.90;;;;;;5022246;28;20192;-65
2022/01/13 06:11:10;;;;;;;7.73;4.90;;;4.20;99.90;;;;;;5024416;28;20186;-62
2022/01/13 06:13:36;;;;;;;21.10;9.93;;;4.10;99.90;;;;;;5025121;28;20182;-63
2022/01/13 06:16:02;;;;;;;12.33;6.37;;;4.20;99.90;;;;;;5024010;28;20180;-63
2022/01/13 06:18:28;;;;;;;9.20;6.00;;;4.20;99.90;;;;;;5024861;28;20261;-66
2022/01/13 06:20:54;;;;;;;5.90;4.40;;;4.20;99.90;;;;;;5027839;28;20207;-63
2022/01/13 06:23:20;;;;;;;7.13;4.27;;;4.30;99.90;;;;;;5028697;28;20179;-64
2022/01/13 06:25:47;;;;;;;7.87;5.40;;;4.30;99.90;;;;;;5026015;28;20199;-63
2022/01/13 06:28:12;;;;;;;8.90;5.80;;;4.20;99.90;;;;;;5023257;28;20231;-64
2022/01/13 06:30:38;;;;;;;12.33;6.10;;;4.20;99.90;;;;;;5023258;28;20597;-63
2022/01/13 06:33:04;;;;;;;7.80;4.93;;;4.30;99.90;;;;;;5024812;28;20535;-65
2022/01/13 06:35:29;;;;;;;8.30;4.80;;;4.30;99.90;;;;;;5022751;28;20235;-63
2022/01/13 06:37:55;;;;;;;8.63;4.10;;;4.30;99.90;;;;;;5023614;28;20686;-63
2022/01/13 06:40:21;;;;;;;5.97;4.40;;;4.40;99.90;;;;;;5025388;28;20210;-63
2022/01/13 06:42:46;;;;;;;5.00;3.33;;;4.40;99.90;;;;;;5029931;28;20186;-62
2022/01/13 06:45:13;;;;;;;8.63;5.40;;;4.30;99.90;;;;;;5024715;28;20180;-65
2022/01/13 06:47:39;;;;;;;9.63;5.83;;;4.30;99.90;;;;;;5019613;28;20216;-64
2022/01/13 06:50:07;;;;;;;10.70;7.60;;;4.30;99.90;;;;;;5016486;28;20173;-65
2022/01/13 06:52:32;;;;;;;10.30;4.13;;;4.40;99.90;;;;;;5015210;28;20210;-65
2022/01/13 06:54:58;;;;;;;6.37;4.40;;;4.40;99.90;;;;;;5019031;28;20269;-65
2022/01/13 06:57:24;;;;;;;9.50;4.37;;;4.40;99.90;;;;;;5023763;28;20192;-66
2022/01/13 06:59:49;;;;;;;7.93;4.23;;;4.50;99.90;;;;;;5023374;28;20298;-65
2022/01/13 07:02:15;;;;;;;10.93;4.20;;;4.50;99.90;;;;;;5025526;28;20183;-63
2022/01/13 07:04:42;;;;;;;4.90;3.30;;;4.60;99.90;;;;;;5024639;28;20226;-63
2022/01/13 07:07:08;;;;;;;10.73;4.43;;;4.60;99.90;;;;;;5017934;28;20662;-66
2022/01/13 07:09:34;;;;;;;6.83;3.93;;;4.50;99.90;;;;;;5025579;28;20205;-65
2022/01/13 07:11:59;;;;;;;8.67;4.53;;;4.60;99.90;;;;;;5016805;28;20183;-63
2022/01/13 07:14:25;;;;;;;6.30;4.57;;;4.50;99.90;;;;;;5021509;28;20369;-63
2022/01/13 07:16:51;;;;;;;6.27;4.67;;;4.60;99.90;;;;;;5018188;28;20193;-64
2022/01/13 07:19:16;;;;;;;7.13;3.77;;;4.60;99.90;;;;;;5019219;28;20183;-63
2022/01/13 07:21:44;;;;;;;12.50;5.10;;;4.60;99.90;;;;;;5022780;28;20246;-63
2022/01/13 07:24:10;;;;;;;9.50;4.87;;;4.60;99.90;;;;;;5024078;28;20179;-66
2022/01/13 07:26:36;;;;;;;8.43;5.20;;;4.80;99.90;;;;;;5025543;28;20206;-64
2022/01/13 07:29:04;;;;;;;9.77;5.17;;;4.70;99.90;;;;;;5020027;28;20201;-64
2022/01/13 07:31:30;;;;;;;7.53;4.87;;;4.70;99.90;;;;;;5019399;28;20191;-68
2022/01/13 07:33:55;;;;;;;7.03;4.70;;;4.70;99.90;;;;;;5018232;28;20343;-66
2022/01/13 07:36:21;;;;;;;10.27;4.87;;;4.80;99.90;;;;;;5018357;28;20758;-63
2022/01/13 07:38:48;;;;;;;6.43;4.43;;;4.70;99.90;;;;;;5019144;28;20193;-64
2022/01/13 07:41:13;;;;;;;7.87;4.80;;;4.80;99.90;;;;;;5014182;28;20541;-66
2022/01/13 07:43:42;;;;;;;8.57;4.70;;;4.80;99.90;;;;;;5019144;28;20206;-65
2022/01/13 07:46:09;;;;;;;7.07;4.10;;;4.70;99.90;;;;;;5020814;28;20188;-67
2022/01/13 07:48:34;;;;;;;8.87;4.57;;;4.80;99.90;;;;;;5020079;28;20222;-70
2022/01/13 07:51:00;;;;;;;9.03;4.63;;;4.80;99.90;;;;;;5032799;28;20258;-64
2022/01/13 07:53:26;;;;;;;10.43;4.40;;;4.80;99.90;;;;;;5019923;28;20190;-64
2022/01/13 07:55:51;;;;;;;8.03;4.57;;;4.90;99.90;;;;;;5021518;28;20271;-63
2022/01/13 07:58:17;;;;;;;7.97;4.47;;;4.90;99.90;;;;;;5018230;28;20297;-66
2022/01/13 08:00:43;;;;;;;11.63;4.93;;;4.80;99.90;;;;;;5017840;28;21351;-63
2022/01/13 08:03:08;;;;;;;9.87;4.53;;;4.90;99.90;;;;;;5018901;28;20188;-63
2022/01/13 08:05:34;;;;;;;10.47;5.57;;;4.90;99.90;;;;;;5030553;28;20194;-63
2022/01/13 08:08:00;;;;;;;7.90;5.00;;;5.00;99.90;;;;;;5019368;28;20212;-63
2022/01/13 08:10:25;;;;;;;13.50;5.50;;;4.90;99.90;;;;;;5019375;28;20631;-64
2022/01/13 08:12:51;;;;;;;8.17;4.77;;;4.90;99.90;;;;;;5024297;28;20214;-68
2022/01/13 08:15:17;;;;;;;8.27;4.30;;;4.90;99.90;;;;;;5024647;28;20206;-68
2022/01/13 08:20:29;;;;;;;8.73;4.53;;;4.90;99.90;;;;;;5020905;28;20273;-63
2022/01/13 08:22:55;;;;;;;12.63;4.70;;;5.00;99.90;;;;;;5024458;28;20625;-64
2022/01/13 08:25:21;;;;;;;10.63;4.37;;;5.00;99.90;;;;;;5016707;28;20595;-64
2022/01/13 08:27:48;;;;;;;10.43;3.87;;;4.90;99.90;;;;;;5019196;28;20208;-69
2022/01/13 08:30:15;;;;;;;9.17;4.17;;;5.10;99.90;;;;;;5015434;28;20596;-63
2022/01/13 08:32:41;;;;;;;13.07;4.30;;;5.10;99.90;;;;;;5016146;28;20196;-63
2022/01/13 08:35:08;;;;;;;8.33;4.20;;;5.10;99.90;;;;;;5019477;28;20237;-66
2022/01/13 08:37:34;;;;;;;8.70;4.27;;;5.10;99.90;;;;;;5025590;28;20209;-64
2022/01/13 08:40:02;;;;;;;14.03;4.20;;;5.20;99.90;;;;;;5019637;28;20180;-65
2022/01/13 08:42:29;;;;;;;9.50;4.03;;;5.30;99.90;;;;;;5021754;28;20179;-67
2022/01/13 08:44:55;;;;;;;12.87;4.00;;;5.30;99.90;;;;;;5018832;28;20173;-63
2022/01/13 08:47:21;;;;;;;7.70;4.40;;;5.30;99.90;;;;;;5026170;28;20230;-64
2022/01/13 08:49:46;;;;;;;6.73;3.73;;;5.30;99.90;;;;;;5031139;28;20196;-64
2022/01/13 08:52:12;;;;;;;8.20;3.77;;;5.40;99.90;;;;;;5027016;28;20169;-65
2022/01/13 08:54:38;;;;;;;8.17;4.23;;;5.40;99.90;;;;;;5026252;28;20181;-63
2022/01/13 08:57:06;;;;;;;6.00;3.83;;;5.50;99.90;;;;;;5021840;28;20188;-63
2022/01/13 08:59:32;;;;;;;10.90;3.70;;;5.50;99.90;;;;;;5021700;28;20562;-63
2022/01/13 09:01:58;;;;;;;6.27;3.10;;;5.50;99.90;;;;;;5022598;28;20220;-65
2022/01/13 09:04:24;;;;;;;6.10;3.10;;;5.50;99.90;;;;;;5020445;28;20223;-64
2022/01/13 09:06:49;;;;;;;9.07;4.80;;;5.60;99.90;;;;;;5023127;28;20255;-64
2022/01/13 09:09:15;;;;;;;8.03;3.60;;;5.70;99.90;;;;;;5021500;28;20190;-64
2022/01/13 09:11:42;;;;;;;6.63;3.90;;;5.70;99.90;;;;;;5018381;28;20255;-63
2022/01/13 09:14:08;;;;;;;6.90;3.67;;;5.80;99.90;;;;;;5016539;28;20315;-62
2022/01/13 09:16:41;;;;;;;5.87;3.97;;;5.80;99.90;;;;;;5016660;28;20191;-64
2022/01/13 09:19:12;;;;;;;6.80;3.60;;;5.80;99.90;;;;;;5017227;28;20280;-63
2022/01/13 09:21:44;;;;;;;9.17;3.93;;;5.80;99.90;;;;;;5018387;28;20192;-63
2022/01/13 09:24:13;;;;;;;6.80;3.37;;;5.80;99.90;;;;;;5018339;28;20319;-62
2022/01/13 09:26:39;;;;;;;7.43;3.93;;;5.90;99.90;;;;;;5019449;28;20684;-64
2022/01/13 09:29:06;;;;;;;6.77;3.83;;;6.00;99.90;;;;;;5022086;28;20613;-64
2022/01/13 09:31:35;;;;;;;7.57;3.63;;;6.00;99.90;;;;;;5020845;28;20199;-63
2022/01/13 09:34:02;;;;;;;5.20;3.57;;;6.10;99.90;;;;;;5022984;28;20188;-63
2022/01/13 09:36:29;;;;;;;8.53;3.83;;;6.00;99.90;;;;;;5027324;28;20240;-69
2022/01/13 09:38:55;;;;;;;7.43;3.10;;;6.00;99.90;;;;;;5022500;28;20284;-64
2022/01/13 09:41:24;;;;;;;5.57;3.33;;;6.10;99.90;;;;;;5023201;28;20543;-64
2022/01/13 09:43:50;;;;;;;6.30;3.40;;;6.20;99.90;;;;;;5021268;28;20178;-63
2022/01/13 09:46:16;;;;;;;5.70;3.50;;;6.30;99.90;;;;;;5023721;28;20555;-62
2022/01/13 09:48:44;;;;;;;8.07;3.60;;;6.40;99.90;;;;;;5028361;28;20367;-63
2022/01/13 09:51:10;;;;;;;5.17;3.77;;;6.30;99.90;;;;;;5021733;28;20191;-62
2022/01/13 09:53:36;;;;;;;6.10;3.20;;;6.40;99.90;;;;;;5025031;28;20185;-62
2022/01/13 09:56:03;;;;;;;9.53;3.63;;;6.50;99.90;;;;;;5020283;28;21883;-62
2022/01/13 09:58:29;;;;;;;8.23;3.87;;;6.50;99.90;;;;;;5023837;28;20198;-63
2022/01/13 10:00:55;;;;;;;7.20;3.63;;;6.50;99.90;;;;;;5023108;28;20193;-64
2022/01/13 10:03:25;;;;;;;4.67;3.00;;;6.50;99.90;;;;;;5020873;28;20193;-64
2022/01/13 10:05:59;;;;;;;4.30;2.70;;;6.60;99.90;;;;;;5021190;28;20193;-64
2022/01/13 10:08:49;;;;;;;9.03;3.90;;;6.70;99.90;;;;;;5020871;28;20765;-64
2022/01/13 10:11:33;;;;;;;5.43;3.00;;;6.80;99.90;;;;;;5018306;28;20209;-63
2022/01/13 10:16:58;;;;;;;7.57;3.70;;;6.90;99.90;;;;;;5025784;28;20306;-64
2022/01/13 10:19:35;;;;;;;6.33;3.97;;;7.00;99.90;;;;;;5023305;28;20271;-64
2022/01/13 10:22:20;;;;;;;4.50;3.27;;;7.00;99.90;;;;;;5028401;28;20644;-63
2022/01/13 10:24:55;;;;;;;8.53;2.90;;;7.00;99.90;;;;;;5026392;28;20549;-63
2022/01/13 10:27:41;;;;;;;6.63;3.57;;;7.00;99.90;;;;;;5018528;28;20205;-63
2022/01/13 10:30:15;;;;;;;6.53;3.70;;;7.20;99.90;;;;;;5016240;28;20788;-68
2022/01/13 10:32:45;;;;;;;7.80;3.50;;;7.10;99.90;;;;;;5024774;28;20184;-62
2022/01/13 10:35:14;;;;;;;7.27;3.33;;;7.20;99.90;;;;;;5021485;28;20239;-63
2022/01/13 10:38:01;;;;;;;5.47;3.10;;;7.30;99.90;;;;;;5024382;28;20541;-65
2022/01/13 10:40:34;;;;;;;5.50;3.23;;;7.30;99.90;;;;;;5020496;28;20184;-65
2022/01/13 10:45:38;;;;;;;4.10;2.83;;;7.40;99.90;;;;;;5026073;28;20180;-63
2022/01/13 10:48:06;;;;;;;5.17;3.17;;;7.40;99.90;;;;;;5023168;28;20200;-63
2022/01/13 10:50:33;;;;;;;7.80;3.27;;;7.40;99.90;;;;;;5025745;28;20622;-62
2022/01/13 10:53:03;;;;;;;5.30;3.03;;;7.40;99.90;;;;;;5024090;28;20191;-63
2022/01/13 10:55:30;;;;;;;5.40;2.93;;;7.40;99.90;;;;;;5018757;28;20204;-62
2022/01/13 10:57:57;;;;;;;7.97;3.70;;;7.40;99.90;;;;;;5025165;28;20704;-62
2022/01/13 11:00:26;;;;;;;5.60;3.10;;;7.40;99.90;;;;;;5026436;28;20270;-62
2022/01/13 11:03:08;;;;;;;4.53;2.80;;;7.40;99.90;;;;;;5025405;28;20526;-64
2022/01/13 11:05:37;;;;;;;6.33;3.50;;;7.40;99.90;;;;;;5026074;28;20179;-64
2022/01/13 11:08:06;;;;;;;7.33;3.40;;;7.50;99.90;;;;;;5021569;28;20261;-68
2022/01/13 11:10:33;;;;;;;12.27;3.60;;;7.50;99.90;;;;;;5022698;28;20191;-63
2022/01/13 11:13:01;;;;;;;8.00;3.60;;;7.40;99.90;;;;;;5023853;28;20521;-66
2022/01/13 11:15:27;;;;;;;7.77;3.40;;;7.40;99.90;;;;;;5025357;28;20311;-63
2022/01/13 11:17:55;;;;;;;3.63;2.70;;;7.50;99.90;;;;;;5027354;28;20184;-68
2022/01/13 11:20:22;;;;;;;5.00;3.13;;;7.50;99.90;;;;;;5026672;28;20182;-63
2022/01/13 11:22:50;;;;;;;4.40;2.97;;;7.60;99.90;;;;;;5030141;28;20719;-64
2022/01/13 11:25:18;;;;;;;5.37;3.00;;;7.60;99.90;;;;;;5025220;28;20184;-66
2022/01/13 11:27:45;;;;;;;7.10;3.33;;;7.50;99.90;;;;;;5018145;28;20215;-66
2022/01/13 11:30:13;;;;;;;7.10;3.07;;;7.50;99.90;;;;;;5023399;28;20281;-64
2022/01/13 11:32:41;;;;;;;4.67;3.17;;;7.50;99.90;;;;;;5023036;28;20236;-63
2022/01/13 11:35:12;;;;;;;8.27;3.17;;;7.40;99.90;;;;;;5024494;28;20667;-64
2022/01/13 11:37:41;;;;;;;3.97;2.90;;;7.40;99.90;;;;;;5021513;28;20243;-63
2022/01/13 11:40:28;;;;;;;5.07;3.27;;;7.40;99.90;;;;;;5024062;28;20640;-64
2022/01/13 11:42:59;;;;;;;6.60;3.90;;;7.40;99.90;;;;;;5022165;28;20203;-64
2022/01/13 11:45:26;;;;;;;6.97;3.40;;;7.50;99.90;;;;;;5020101;28;20648;-63
2022/01/13 11:48:26;;;;;;;8.77;3.40;;;7.50;99.90;;;;;;5022108;28;20211;-65
2022/01/13 11:51:17;;;;;;;3.83;3.10;;;7.50;99.90;;;;;;5022652;28;21617;-64
2022/01/13 11:53:56;;;;;;;8.13;3.80;;;7.40;99.90;;;;;;5020090;28;20308;-66
2022/01/13 11:56:23;;;;;;;5.17;3.47;;;7.50;99.90;;;;;;5015329;28;20187;-63
2022/01/13 11:58:49;;;;;;;7.13;3.40;;;7.50;99.90;;;;;;5018900;28;20642;-62
2022/01/13 12:01:19;;;;;;;5.23;3.27;;;7.50;99.90;;;;;;5020917;28;20272;-64
2022/01/13 12:03:50;;;;;;;6.30;3.03;;;7.60;99.90;;;;;;5023405;28;20639;-63
2022/01/13 12:06:36;;;;;;;7.20;3.30;;;7.60;99.90;;;;;;5019757;28;20185;-64
2022/01/13 12:09:05;;;;;;;5.67;3.30;;;7.60;99.90;;;;;;5019524;28;20256;-64
2022/01/13 12:11:51;;;;;;;8.97;3.53;;;7.60;99.90;;;;;;5021559;28;20183;-64
2022/01/13 12:14:22;;;;;;;6.80;3.17;;;7.50;99.90;;;;;;5019046;28;20258;-64
2022/01/13 12:17:06;;;;;;;4.67;3.10;;;7.60;99.90;;;;;;5018141;28;20627;-65
2022/01/13 12:19:40;;;;;;;9.00;3.53;;;7.50;99.90;;;;;;5021486;28;20246;-63
2022/01/13 12:22:12;;;;;;;4.07;3.00;;;7.60;99.90;;;;;;5022156;28;20193;-72
2022/01/13 12:24:49;;;;;;;5.93;2.70;;;7.60;99.90;;;;;;5016481;28;20634;-66
2022/01/13 12:27:16;;;;;;;5.53;3.10;;;7.60;99.90;;;;;;5024549;28;20597;-65
2022/01/13 12:29:50;;;;;;;11.17;3.27;;;7.60;99.90;;;;;;5023067;28;20716;-65
2022/01/13 12:32:43;;;;;;;5.33;3.03;;;7.70;99.90;;;;;;5023708;28;20183;-65
2022/01/13 12:35:12;;;;;;;5.80;2.90;;;7.70;99.90;;;;;;5021279;28;20238;-67
2022/01/13 12:37:39;;;;;;;6.60;2.90;;;7.70;99.90;;;;;;5023092;28;20264;-65
2022/01/13 12:40:12;;;;;;;5.93;3.30;;;7.60;99.90;;;;;;5021449;28;20230;-63
2022/01/13 12:42:50;;;;;;;7.47;3.20;;;7.60;99.90;;;;;;5025324;28;20186;-65
2022/01/13 12:45:33;;;;;;;4.37;2.87;;;7.60;99.90;;;;;;5021740;28;20203;-64
2022/01/13 12:48:00;;;;;;;4.10;2.67;;;7.70;99.90;;;;;;5024263;28;20314;-65
2022/01/13 12:50:32;;;;;;;3.67;2.77;;;7.70;99.90;;;;;;5024801;28;20251;-65
2022/01/13 12:53:12;;;;;;;4.63;3.23;;;7.60;99.90;;;;;;5021590;28;20528;-68
2022/01/13 12:55:41;;;;;;;5.70;3.47;;;7.60;99.90;;;;;;5023845;28;20655;-64
2022/01/13 12:58:07;;;;;;;9.13;4.10;;;7.60;99.90;;;;;;5024033;28;20228;-65
2022/01/13 13:00:34;;;;;;;6.43;3.50;;;7.70;99.90;;;;;;5020977;28;20183;-64
2022/01/13 13:03:06;;;;;;;6.90;3.53;;;7.70;99.90;;;;;;5024184;28;20195;-66
2022/01/13 13:05:45;;;;;;;4.27;2.83;;;7.80;99.90;;;;;;5020856;28;20218;-64
2022/01/13 13:08:16;;;;;;;4.43;2.50;;;7.70;99.90;;;;;;5022734;28;20588;-64
2022/01/13 13:10:45;;;;;;;4.07;2.67;;;7.70;99.90;;;;;;5030924;28;20242;-65
2022/01/13 13:13:12;;;;;;;4.77;3.00;;;7.70;99.90;;;;;;5025246;28;20172;-64
2022/01/13 13:18:04;;;;;;;7.57;3.33;;;7.80;99.90;;;;;;5023330;28;20243;-62
2022/01/13 13:20:35;;;;;;;4.73;3.13;;;7.80;99.90;;;;;;5021621;28;20562;-63
2022/01/13 13:23:06;;;;;;;6.97;3.23;;;7.70;99.90;;;;;;5026527;28;20188;-62
2022/01/13 13:25:39;;;;;;;4.30;2.80;;;7.80;99.90;;;;;;5023254;28;20194;-65
2022/01/13 13:28:24;;;;;;;5.40;3.07;;;7.80;99.90;;;;;;5025467;28;20212;-65